createdAt,value
2023-02-15T00:00:26.970Z,65.69
2023-02-15T00:01:29.066Z,65.97
2023-02-15T00:02:31.059Z,66.17
2023-02-15T00:03:33.174Z,66.06
2023-02-15T00:04:48.373Z,66.33
2023-02-15T00:05:52.293Z,66.52
2023-02-15T00:06:56.776Z,66.94
2023-02-15T00:07:58.922Z,66.53
2023-02-15T00:09:01.520Z,66.53
2023-02-15T00:10:05.800Z,66.51
2023-02-15T00:11:11.527Z,66.77
2023-02-15T00:12:16.227Z,67.19
2023-02-15T00:13:19.348Z,67.04
2023-02-15T00:14:24.289Z,66.87
2023-02-15T00:15:26.641Z,67.05
2023-02-15T00:16:29.747Z,67.31
2023-02-15T00:17:32.717Z,67.48
2023-02-15T00:18:35.607Z,67.53
2023-02-15T00:19:38.085Z,67.61
2023-02-15T00:20:40.309Z,67.90
2023-02-15T00:21:42.360Z,68.01
2023-02-15T00:22:45.300Z,67.77
2023-02-15T00:23:48.500Z,67.55
2023-02-15T00:24:51.580Z,67.82
2023-02-15T00:26:07.027Z,67.76
2023-02-15T00:27:09.628Z,67.89
2023-02-15T00:28:13.701Z,67.92
2023-02-15T00:29:18.098Z,67.79
2023-02-15T00:30:20.659Z,67.63
2023-02-15T00:31:23.249Z,67.63
2023-02-15T00:32:25.995Z,67.55
2023-02-15T00:33:28.461Z,67.55
2023-02-15T00:34:30.789Z,67.43
2023-02-15T00:35:32.785Z,67.36
2023-02-15T00:36:35.263Z,67.21
2023-02-15T00:37:37.480Z,67.11
2023-02-15T00:38:39.873Z,66.72
2023-02-15T00:39:42.093Z,66.94
2023-02-15T00:40:44.313Z,67.04
2023-02-15T00:41:47.427Z,66.95
2023-02-15T00:42:49.945Z,67.15
2023-02-15T00:43:52.184Z,67.00
2023-02-15T00:44:54.362Z,66.90
2023-02-15T00:45:57.091Z,66.71
2023-02-15T00:46:59.612Z,66.71
2023-02-15T00:48:02.717Z,66.68
2023-02-15T00:49:06.549Z,66.92
2023-02-15T00:50:10.362Z,66.54
2023-02-15T00:51:13.915Z,66.66
2023-02-15T00:52:16.631Z,66.33
2023-02-15T00:53:20.359Z,66.07
2023-02-15T00:54:22.439Z,65.74
2023-02-15T00:55:25.728Z,65.78
2023-02-15T00:56:29.142Z,66.05
2023-02-15T00:57:31.599Z,65.81
2023-02-15T00:58:34.283Z,65.46
2023-02-15T00:59:36.519Z,65.58
2023-02-15T01:00:40.607Z,65.87
2023-02-15T01:01:43.034Z,66.24
2023-02-15T01:02:45.138Z,66.23
2023-02-15T01:03:47.902Z,65.98
2023-02-15T01:04:50.703Z,65.95
2023-02-15T01:05:53.050Z,66.26
2023-02-15T01:06:55.672Z,65.83
2023-02-15T01:07:57.887Z,66.28
2023-02-15T01:09:01.122Z,65.54
2023-02-15T01:10:04.704Z,65.03
2023-02-15T01:11:12.247Z,65.00
2023-02-15T01:12:15.072Z,65.08
2023-02-15T01:13:18.110Z,64.94
2023-02-15T01:14:20.422Z,64.92
2023-02-15T01:15:23.636Z,64.55
2023-02-15T01:16:28.678Z,64.81
2023-02-15T01:17:32.300Z,64.87
2023-02-15T01:18:35.586Z,64.65
2023-02-15T01:19:38.378Z,64.75
2023-02-15T01:20:42.221Z,64.16
2023-02-15T01:21:44.409Z,64.09
2023-02-15T01:22:46.945Z,63.81
2023-02-15T01:23:49.766Z,63.76
2023-02-15T01:24:52.074Z,63.34
2023-02-15T01:25:54.628Z,63.51
2023-02-15T01:26:56.716Z,63.62
2023-02-15T01:27:58.850Z,63.54
2023-02-15T01:29:00.899Z,63.31
2023-02-15T01:30:05.069Z,63.46
2023-02-15T01:31:09.876Z,63.43
2023-02-15T01:32:13.344Z,63.66
2023-02-15T01:33:18.583Z,63.97
2023-02-15T01:34:21.658Z,64.30
2023-02-15T01:35:24.693Z,64.50
2023-02-15T01:36:26.886Z,64.65
2023-02-15T01:37:31.695Z,65.09
2023-02-15T01:38:35.621Z,64.87
2023-02-15T01:39:38.814Z,65.17
2023-02-15T01:40:41.270Z,65.13
2023-02-15T01:41:43.482Z,65.62
2023-02-15T01:42:45.474Z,65.73
2023-02-15T01:43:57.955Z,65.55
2023-02-15T01:46:17.932Z,64.61
2023-02-15T01:47:39.527Z,64.06
2023-02-15T01:48:49.404Z,63.96
2023-02-15T01:51:19.388Z,63.83
2023-02-15T01:52:21.864Z,64.01
2023-02-15T01:55:07.336Z,64.49
2023-02-15T01:56:14.482Z,64.35
2023-02-15T01:57:20.470Z,64.42
2023-02-15T01:58:25.322Z,64.36
2023-02-15T01:59:29.770Z,64.54
2023-02-15T02:00:34.181Z,64.67
2023-02-15T02:01:37.928Z,64.64
2023-02-15T02:02:44.388Z,64.62
2023-02-15T02:03:59.516Z,64.69
2023-02-15T02:05:05.918Z,64.89
2023-02-15T02:06:09.257Z,64.85
2023-02-15T02:07:14.741Z,65.07
2023-02-15T02:08:17.101Z,65.28
2023-02-15T02:09:19.123Z,65.34
2023-02-15T02:10:23.541Z,64.93
2023-02-15T02:11:25.793Z,64.63
2023-02-15T02:12:28.364Z,64.79
2023-02-15T02:13:30.489Z,63.82
2023-02-15T02:14:34.099Z,63.81
2023-02-15T02:15:44.605Z,63.94
2023-02-15T02:17:05.599Z,63.78
2023-02-15T02:18:12.011Z,63.88
2023-02-15T02:19:38.004Z,64.29
2023-02-15T02:22:44.192Z,63.85
2023-02-15T02:24:06.802Z,64.13
2023-02-15T02:25:22.703Z,63.63
2023-02-15T02:26:38.165Z,62.94
2023-02-15T02:27:43.988Z,63.08
2023-02-15T02:29:18.833Z,63.32
2023-02-15T02:30:42.964Z,62.65
2023-02-15T02:32:08.624Z,62.86
2023-02-15T02:34:47.963Z,63.79
2023-02-15T02:36:08.849Z,63.26
2023-02-15T02:38:36.682Z,63.60
2023-02-15T02:39:58.639Z,63.25
2023-02-15T02:41:07.568Z,62.77
2023-02-15T02:42:25.614Z,63.01
2023-02-15T02:43:40.512Z,62.87
2023-02-15T02:44:52.249Z,62.52
2023-02-15T02:46:01.319Z,62.54
2023-02-15T02:47:27.378Z,62.59
2023-02-15T02:48:33.688Z,62.55
2023-02-15T02:49:42.948Z,62.54
2023-02-15T02:50:45.241Z,62.67
2023-02-15T02:51:47.340Z,63.18
2023-02-15T02:52:53.101Z,62.47
2023-02-15T02:53:58.800Z,61.98
2023-02-15T02:55:07.572Z,62.23
2023-02-15T02:57:27.157Z,62.46
2023-02-15T02:58:39.437Z,62.60
2023-02-15T02:59:44.996Z,62.90
2023-02-15T03:00:59.778Z,62.67
2023-02-15T03:02:12.084Z,62.91
2023-02-15T03:03:17.914Z,62.39
2023-02-15T03:04:29.531Z,62.27
2023-02-15T03:05:34.283Z,62.20
2023-02-15T03:06:43.491Z,62.27
2023-02-15T03:07:49.331Z,61.74
2023-02-15T03:10:08.669Z,62.43
2023-02-15T03:11:12.135Z,62.35
2023-02-15T03:12:18.049Z,62.17
2023-02-15T03:13:22.919Z,62.04
2023-02-15T03:14:26.212Z,62.14
2023-02-15T03:15:58.042Z,62.09
2023-02-15T03:17:01.559Z,62.25
2023-02-15T03:18:05.348Z,62.05
2023-02-15T03:19:11.274Z,62.12
2023-02-15T03:20:25.321Z,62.31
2023-02-15T03:22:00.894Z,61.88
2023-02-15T03:23:19.687Z,61.96
2023-02-15T03:24:28.670Z,62.81
2023-02-15T03:25:37.664Z,62.03
2023-02-15T03:26:44.090Z,61.99
2023-02-15T03:27:50.755Z,61.95
2023-02-15T03:28:57.697Z,61.84
2023-02-15T03:30:02.539Z,61.89
2023-02-15T03:31:08.323Z,61.46
2023-02-15T03:32:14.374Z,61.77
2023-02-15T03:33:18.060Z,61.71
2023-02-15T03:34:20.421Z,61.60
2023-02-15T03:35:26.749Z,61.73
2023-02-15T03:36:41.642Z,61.66
2023-02-15T03:37:53.895Z,61.95
2023-02-15T03:39:21.057Z,62.25
2023-02-15T03:40:51.893Z,62.07
2023-02-15T03:42:00.595Z,61.93
2023-02-15T03:43:06.827Z,61.98
2023-02-15T03:44:22.521Z,62.03
2023-02-15T03:46:49.076Z,61.53
2023-02-15T03:47:52.979Z,61.16
2023-02-15T03:49:07.426Z,60.80
2023-02-15T03:50:35.177Z,61.05
2023-02-15T03:51:41.880Z,60.73
2023-02-15T03:52:44.495Z,60.54
2023-02-15T03:53:49.385Z,60.58
2023-02-15T03:54:52.039Z,60.61
2023-02-15T03:55:56.253Z,61.08
2023-02-15T03:57:17.333Z,60.99
2023-02-15T03:59:56.695Z,61.32
2023-02-15T04:01:20.965Z,60.76
2023-02-15T04:02:26.856Z,60.79
2023-02-15T04:03:35.892Z,60.83
2023-02-15T04:04:41.647Z,60.45
2023-02-15T04:05:45.236Z,61.13
2023-02-15T04:06:47.772Z,61.27
2023-02-15T04:07:50.862Z,61.44
2023-02-15T04:09:13.282Z,61.68
2023-02-15T04:10:35.256Z,61.49
2023-02-15T04:11:37.205Z,61.58
2023-02-15T04:12:40.119Z,61.55
2023-02-15T04:13:43.208Z,61.55
2023-02-15T04:15:03.790Z,61.39
2023-02-15T04:16:07.652Z,61.25
2023-02-15T04:17:12.148Z,61.70
2023-02-15T04:18:15.034Z,61.53
2023-02-15T04:19:35.265Z,61.40
2023-02-15T04:20:55.745Z,61.52
2023-02-15T04:22:16.304Z,61.39
2023-02-15T04:23:37.031Z,61.01
2023-02-15T04:24:57.390Z,61.48
2023-02-15T04:26:05.168Z,60.85
2023-02-15T04:27:07.727Z,60.65
2023-02-15T04:28:09.837Z,60.77
2023-02-15T04:29:12.077Z,60.54
2023-02-15T04:30:19.004Z,60.76
2023-02-15T04:31:22.501Z,60.76
2023-02-15T04:32:24.853Z,60.73
2023-02-15T04:33:27.087Z,60.57
2023-02-15T04:34:28.975Z,60.82
2023-02-15T04:35:32.016Z,60.52
2023-02-15T04:36:35.158Z,59.89
2023-02-15T04:37:37.709Z,59.59
2023-02-15T04:38:40.052Z,59.51
2023-02-15T04:39:42.096Z,59.65
2023-02-15T04:40:44.821Z,60.46
2023-02-15T04:41:48.114Z,60.51
2023-02-15T04:42:50.296Z,60.43
2023-02-15T04:43:52.185Z,60.07
2023-02-15T04:44:55.238Z,60.26
2023-02-15T04:45:59.437Z,60.08
2023-02-15T04:47:01.955Z,60.18
2023-02-15T04:48:04.180Z,60.36
2023-02-15T04:49:07.019Z,60.21
2023-02-15T04:50:10.839Z,60.60
2023-02-15T04:51:13.056Z,60.98
2023-02-15T04:52:15.503Z,60.70
2023-02-15T04:53:18.786Z,60.65
2023-02-15T04:54:21.131Z,61.08
2023-02-15T04:55:24.473Z,60.91
2023-02-15T04:56:27.180Z,61.07
2023-02-15T04:57:29.180Z,61.36
2023-02-15T04:58:32.085Z,61.44
2023-02-15T04:59:34.356Z,61.40
2023-02-15T05:00:37.017Z,61.63
2023-02-15T05:01:40.399Z,61.53
2023-02-15T05:02:42.754Z,61.66
2023-02-15T05:03:44.874Z,61.51
2023-02-15T05:04:47.096Z,61.64
2023-02-15T05:05:51.518Z,61.26
2023-02-15T05:06:55.140Z,61.44
2023-02-15T05:07:57.497Z,61.85
2023-02-15T05:08:59.635Z,62.07
2023-02-15T05:10:02.294Z,61.99
2023-02-15T05:11:04.564Z,62.36
2023-02-15T05:12:07.074Z,62.63
2023-02-15T05:13:09.304Z,62.68
2023-02-15T05:14:11.836Z,62.29
2023-02-15T05:15:14.065Z,62.17
2023-02-15T05:16:16.217Z,62.33
2023-02-15T05:17:18.925Z,62.34
2023-02-15T05:18:22.546Z,62.17
2023-02-15T05:19:26.043Z,62.36
2023-02-15T05:20:28.577Z,62.25
2023-02-15T05:21:31.757Z,62.04
2023-02-15T05:22:33.907Z,61.70
2023-02-15T05:23:36.507Z,61.89
2023-02-15T05:24:57.169Z,62.07
2023-02-15T05:26:18.107Z,61.79
2023-02-15T05:27:38.687Z,61.81
2023-02-15T05:28:41.266Z,62.12
2023-02-15T05:29:44.551Z,62.17
2023-02-15T05:30:50.776Z,62.21
2023-02-15T05:31:53.188Z,62.22
2023-02-15T05:32:56.014Z,62.56
2023-02-15T05:33:58.300Z,62.72
2023-02-15T05:35:00.370Z,62.56
2023-02-15T05:36:05.170Z,62.55
2023-02-15T05:37:08.195Z,63.08
2023-02-15T05:38:10.415Z,62.74
2023-02-15T05:39:12.421Z,63.24
2023-02-15T05:40:15.487Z,62.75
2023-02-15T05:41:17.569Z,62.84
2023-02-15T05:42:19.562Z,63.09
2023-02-15T05:43:22.518Z,63.18
2023-02-15T05:44:24.713Z,63.25
2023-02-15T05:45:27.219Z,63.17
2023-02-15T05:46:30.038Z,63.24
2023-02-15T05:47:32.419Z,63.68
2023-02-15T05:48:36.198Z,63.68
2023-02-15T05:49:38.545Z,63.92
2023-02-15T05:50:40.943Z,64.00
2023-02-15T05:51:43.135Z,64.05
2023-02-15T05:52:46.198Z,63.16
2023-02-15T05:53:49.261Z,63.48
2023-02-15T05:54:51.177Z,63.20
2023-02-15T05:55:54.824Z,63.21
2023-02-15T05:56:57.256Z,63.15
2023-02-15T05:57:59.390Z,63.01
2023-02-15T05:59:02.464Z,63.04
2023-02-15T06:00:06.534Z,62.87
2023-02-15T06:01:17.486Z,62.99
2023-02-15T06:02:19.782Z,62.93
2023-02-15T06:03:23.390Z,63.20
2023-02-15T06:04:25.831Z,62.91
2023-02-15T06:05:27.998Z,62.61
2023-02-15T06:06:30.730Z,62.52
2023-02-15T06:07:33.514Z,62.54
2023-02-15T06:08:37.437Z,62.61
2023-02-15T06:09:40.522Z,62.24
2023-02-15T06:10:43.385Z,62.46
2023-02-15T06:11:46.486Z,62.42
2023-02-15T06:12:48.614Z,62.77
2023-02-15T06:13:52.018Z,62.90
2023-02-15T06:14:54.390Z,62.59
2023-02-15T06:15:58.027Z,62.75
2023-02-15T06:17:00.258Z,62.60
2023-02-15T06:18:02.490Z,62.22
2023-02-15T06:19:05.054Z,62.38
2023-02-15T06:20:09.116Z,61.75
2023-02-15T06:21:12.439Z,62.08
2023-02-15T06:22:15.140Z,62.42
2023-02-15T06:23:18.650Z,61.55
2023-02-15T06:24:20.907Z,61.71
2023-02-15T06:25:22.930Z,61.43
2023-02-15T06:26:25.256Z,61.89
2023-02-15T06:27:28.013Z,62.06
2023-02-15T06:28:30.548Z,61.49
2023-02-15T06:29:32.569Z,61.49
2023-02-15T06:30:36.060Z,61.63
2023-02-15T06:31:38.244Z,60.92
2023-02-15T06:32:41.017Z,61.28
2023-02-15T06:33:43.095Z,60.90
2023-02-15T06:34:45.209Z,60.88
2023-02-15T06:35:47.321Z,60.97
2023-02-15T06:36:49.544Z,60.72
2023-02-15T06:37:51.935Z,61.04
2023-02-15T06:38:54.618Z,61.29
2023-02-15T06:39:56.641Z,61.17
2023-02-15T06:40:58.844Z,61.07
2023-02-15T06:42:00.965Z,60.97
2023-02-15T06:43:04.099Z,61.29
2023-02-15T06:44:06.866Z,60.94
2023-02-15T06:45:10.359Z,61.01
2023-02-15T06:46:15.163Z,60.95
2023-02-15T06:47:18.546Z,61.09
2023-02-15T06:48:20.734Z,60.80
2023-02-15T06:49:24.447Z,61.17
2023-02-15T06:50:27.468Z,60.84
2023-02-15T06:51:31.102Z,61.41
2023-02-15T06:52:34.313Z,61.00
2023-02-15T06:53:37.952Z,60.97
2023-02-15T06:54:40.633Z,61.34
2023-02-15T06:55:42.834Z,61.27
2023-02-15T06:56:45.303Z,60.96
2023-02-15T06:57:49.885Z,61.32
2023-02-15T06:58:53.112Z,60.83
2023-02-15T06:59:55.329Z,61.74
2023-02-15T07:00:57.631Z,61.50
2023-02-15T07:01:59.635Z,61.55
2023-02-15T07:03:03.915Z,61.18
2023-02-15T07:04:06.224Z,61.05
2023-02-15T07:05:08.441Z,61.02
2023-02-15T07:06:11.754Z,61.21
2023-02-15T07:07:14.657Z,61.43
2023-02-15T07:08:16.566Z,61.75
2023-02-15T07:09:19.107Z,61.42
2023-02-15T07:10:22.921Z,61.16
2023-02-15T07:11:44.674Z,61.54
2023-02-15T07:12:47.395Z,61.53
2023-02-15T07:13:51.394Z,61.67
2023-02-15T07:14:53.668Z,61.74
2023-02-15T07:15:55.719Z,61.29
2023-02-15T07:16:58.089Z,60.94
2023-02-15T07:18:00.192Z,61.41
2023-02-15T07:19:02.520Z,61.39
2023-02-15T07:20:14.401Z,61.26
2023-02-15T07:21:16.710Z,61.09
2023-02-15T07:22:19.195Z,61.39
2023-02-15T07:23:21.281Z,61.14
2023-02-15T07:24:23.987Z,60.93
2023-02-15T07:25:25.997Z,60.94
2023-02-15T07:26:28.617Z,62.06
2023-02-15T07:27:32.288Z,62.70
2023-02-15T07:28:35.872Z,62.28
2023-02-15T07:29:38.457Z,62.42
2023-02-15T07:30:40.750Z,64.50
2023-02-15T07:31:44.951Z,62.91
2023-02-15T07:33:06.824Z,64.04
2023-02-15T07:34:09.942Z,63.07
2023-02-15T07:35:13.042Z,63.20
2023-02-15T07:36:16.270Z,62.16
2023-02-15T07:37:19.275Z,62.02
2023-02-15T07:38:22.790Z,62.02
2023-02-15T07:39:26.026Z,61.85
2023-02-15T07:40:28.323Z,62.66
2023-02-15T07:41:31.112Z,63.06
2023-02-15T07:42:35.762Z,63.95
2023-02-15T07:43:42.069Z,63.32
2023-02-15T07:44:44.517Z,66.95
2023-02-15T07:45:46.653Z,66.69
2023-02-15T07:46:49.105Z,66.98
2023-02-15T07:47:52.343Z,67.38
2023-02-15T07:48:55.763Z,64.14
2023-02-15T07:49:57.927Z,63.05
2023-02-15T07:51:02.751Z,62.44
2023-02-15T07:52:05.392Z,62.99
2023-02-15T07:53:07.998Z,61.82
2023-02-15T07:54:10.165Z,62.38
2023-02-15T07:55:13.182Z,62.56
2023-02-15T07:56:16.272Z,67.16
2023-02-15T07:57:19.657Z,69.74
2023-02-15T07:58:23.881Z,66.70
2023-02-15T07:59:26.111Z,69.93
2023-02-15T08:00:30.021Z,68.60
2023-02-15T08:01:35.737Z,70.83
2023-02-15T08:02:39.056Z,72.78
2023-02-15T08:03:43.153Z,62.32
2023-02-15T08:04:45.636Z,61.85
2023-02-15T08:05:48.378Z,59.86
2023-02-15T08:06:53.555Z,60.05
2023-02-15T08:07:55.579Z,60.12
2023-02-15T08:08:57.966Z,62.07
2023-02-15T08:10:00.200Z,62.22
2023-02-15T08:11:23.063Z,60.86
2023-02-15T08:12:28.263Z,63.03
2023-02-15T08:13:30.519Z,60.86
2023-02-15T08:14:32.860Z,63.87
2023-02-15T08:15:35.184Z,63.17
2023-02-15T08:16:42.353Z,61.64
2023-02-15T08:17:45.488Z,61.67
2023-02-15T08:18:48.151Z,61.05
2023-02-15T08:19:50.406Z,63.88
2023-02-15T08:20:53.984Z,64.47
2023-02-15T08:21:58.694Z,61.22
2023-02-15T08:23:01.144Z,61.86
2023-02-15T08:24:04.897Z,61.07
2023-02-15T08:25:07.632Z,61.25
2023-02-15T08:26:10.675Z,60.95
2023-02-15T08:27:12.849Z,61.45
2023-02-15T08:28:14.871Z,61.10
2023-02-15T08:29:20.434Z,61.96
2023-02-15T08:30:24.351Z,61.47
2023-02-15T08:31:28.023Z,61.61
2023-02-15T08:32:30.193Z,62.27
2023-02-15T08:33:32.888Z,62.27
2023-02-15T08:34:37.877Z,67.82
2023-02-15T08:35:41.304Z,63.98
2023-02-15T08:36:47.602Z,62.90
2023-02-15T08:37:50.263Z,63.33
2023-02-15T08:38:53.820Z,63.43
2023-02-15T08:39:55.871Z,62.45
2023-02-15T08:40:57.989Z,61.67
2023-02-15T08:41:59.988Z,61.15
2023-02-15T08:43:01.928Z,61.34
2023-02-15T08:44:08.456Z,60.76
2023-02-15T08:45:10.760Z,61.27
2023-02-15T08:46:14.590Z,61.24
2023-02-15T08:47:16.818Z,63.27
2023-02-15T08:48:18.922Z,64.81
2023-02-15T08:49:24.357Z,65.55
2023-02-15T08:50:26.661Z,70.24
2023-02-15T08:51:32.228Z,61.91
2023-02-15T08:52:35.046Z,60.76
2023-02-15T08:53:39.581Z,62.77
2023-02-15T08:54:41.888Z,60.46
2023-02-15T08:55:44.708Z,60.27
2023-02-15T08:56:47.614Z,59.94
2023-02-15T08:57:49.947Z,60.89
2023-02-15T08:58:53.295Z,61.74
2023-02-15T08:59:55.572Z,60.53
2023-02-15T09:00:59.754Z,61.56
2023-02-15T09:02:03.481Z,60.75
2023-02-15T09:03:06.651Z,60.55
2023-02-15T09:04:10.219Z,60.37
2023-02-15T09:05:12.408Z,61.76
2023-02-15T09:06:16.449Z,61.48
2023-02-15T09:07:19.233Z,61.86
2023-02-15T09:08:22.031Z,62.47
2023-02-15T09:09:24.897Z,63.61
2023-02-15T09:10:30.117Z,62.67
2023-02-15T09:11:39.606Z,60.00
2023-02-15T09:12:41.848Z,60.39
2023-02-15T09:13:45.691Z,61.49
2023-02-15T09:14:48.366Z,60.92
2023-02-15T09:15:51.533Z,62.21
2023-02-15T09:16:56.990Z,59.19
2023-02-15T09:18:01.269Z,64.05
2023-02-15T09:19:06.536Z,59.87
2023-02-15T09:20:11.294Z,58.15
2023-02-15T09:21:17.037Z,58.63
2023-02-15T09:22:19.252Z,59.25
2023-02-15T09:23:26.839Z,58.68
2023-02-15T09:24:25.451Z,58.52
2023-02-15T09:25:28.492Z,58.60
2023-02-15T09:26:33.152Z,57.95
2023-02-15T09:27:36.945Z,58.93
2023-02-15T09:28:40.537Z,58.88
2023-02-15T09:29:42.816Z,58.40
2023-02-15T09:30:46.031Z,59.91
2023-02-15T09:31:50.735Z,58.27
2023-02-15T09:32:53.047Z,57.80
2023-02-15T09:33:56.122Z,57.68
2023-02-15T09:34:58.394Z,58.18
2023-02-15T09:36:00.828Z,58.59
2023-02-15T09:37:03.274Z,59.04
2023-02-15T09:38:05.416Z,57.99
2023-02-15T09:39:24.064Z,58.44
2023-02-15T09:40:30.304Z,57.75
2023-02-15T09:41:49.337Z,57.88
2023-02-15T09:42:55.734Z,57.68
2023-02-15T09:44:07.520Z,56.93
2023-02-15T09:45:25.872Z,56.89
2023-02-15T09:46:47.017Z,57.03
2023-02-15T09:47:55.830Z,55.29
2023-02-15T09:49:01.740Z,54.92
2023-02-15T09:50:13.701Z,54.90
2023-02-15T09:51:28.358Z,54.69
2023-02-15T09:52:52.282Z,54.86
2023-02-15T09:54:25.438Z,55.33
2023-02-15T09:55:43.902Z,55.63
2023-02-15T09:57:04.441Z,55.98
2023-02-15T09:58:25.579Z,55.82
2023-02-15T10:01:29.926Z,55.36
2023-02-15T10:02:48.277Z,55.00
2023-02-15T10:04:28.217Z,54.39
2023-02-15T10:05:58.455Z,54.93
2023-02-15T10:07:21.412Z,55.64
2023-02-15T10:08:36.056Z,54.90
2023-02-15T10:09:59.555Z,55.10
2023-02-15T10:11:36.107Z,55.20
2023-02-15T10:13:04.953Z,55.08
2023-02-15T10:14:28.160Z,55.89
2023-02-15T10:15:34.358Z,55.68
2023-02-15T10:18:34.794Z,55.48
2023-02-15T10:19:58.343Z,55.42
2023-02-15T10:21:04.759Z,54.51
2023-02-15T10:22:21.840Z,54.61
2023-02-15T10:23:44.377Z,55.11
2023-02-15T10:25:08.739Z,55.43
2023-02-15T10:26:19.020Z,55.44
2023-02-15T10:27:22.695Z,56.22
2023-02-15T10:28:32.017Z,56.75
2023-02-15T10:29:40.237Z,56.75
2023-02-15T10:30:52.532Z,56.49
2023-02-15T10:32:02.513Z,56.06
2023-02-15T10:33:09.781Z,55.45
2023-02-15T10:34:42.828Z,55.36
2023-02-15T10:37:22.163Z,55.44
2023-02-15T10:38:44.715Z,55.46
2023-02-15T10:39:50.515Z,55.99
2023-02-15T10:40:58.422Z,56.29
2023-02-15T10:42:33.308Z,56.32
2023-02-15T10:45:14.482Z,56.93
2023-02-15T10:46:41.853Z,57.03
2023-02-15T10:48:22.238Z,56.97
2023-02-15T10:49:48.735Z,56.04
2023-02-15T10:51:00.927Z,55.92
2023-02-15T10:52:30.264Z,55.55
2023-02-15T10:53:54.518Z,55.32
2023-02-15T10:55:20.247Z,55.48
2023-02-15T10:56:39.161Z,56.26
2023-02-15T10:57:55.774Z,56.46
2023-02-15T11:00:39.026Z,55.87
2023-02-15T11:02:03.008Z,55.67
2023-02-15T11:03:25.600Z,55.63
2023-02-15T11:04:41.491Z,55.39
2023-02-15T11:05:56.340Z,54.83
2023-02-15T11:07:03.620Z,54.88
2023-02-15T11:08:09.443Z,54.56
2023-02-15T11:09:15.775Z,54.10
2023-02-15T11:10:28.060Z,53.81
2023-02-15T11:11:33.889Z,53.96
2023-02-15T11:12:36.158Z,53.62
2023-02-15T11:13:42.970Z,53.80
2023-02-15T11:14:51.568Z,53.89
2023-02-15T11:16:00.841Z,53.63
2023-02-15T11:17:10.899Z,53.83
2023-02-15T11:18:29.893Z,53.79
2023-02-15T11:19:38.440Z,53.75
2023-02-15T11:20:48.439Z,53.90
2023-02-15T11:22:00.055Z,53.40
2023-02-15T11:23:03.096Z,52.83
2023-02-15T11:24:18.726Z,52.65
2023-02-15T11:25:27.727Z,52.41
2023-02-15T11:26:39.890Z,51.70
2023-02-15T11:27:45.546Z,51.64
2023-02-15T11:28:52.705Z,51.73
2023-02-15T11:30:09.855Z,51.54
2023-02-15T11:31:21.531Z,51.86
2023-02-15T11:32:34.371Z,51.94
2023-02-15T11:33:41.529Z,51.13
2023-02-15T11:34:57.113Z,51.03
2023-02-15T11:36:03.558Z,50.67
2023-02-15T11:37:12.474Z,50.46
2023-02-15T11:38:21.609Z,50.37
2023-02-15T11:39:28.752Z,50.83
2023-02-15T11:40:48.771Z,50.64
2023-02-15T11:41:57.668Z,50.17
2023-02-15T11:43:09.677Z,50.58
2023-02-15T11:44:16.897Z,50.41
2023-02-15T11:45:31.524Z,50.00
2023-02-15T11:46:34.705Z,50.32
2023-02-15T11:47:37.018Z,50.27
2023-02-15T11:48:41.246Z,49.42
2023-02-15T11:49:45.932Z,50.22
2023-02-15T11:50:48.628Z,49.42
2023-02-15T11:51:52.507Z,48.93
2023-02-15T11:53:04.336Z,49.03
2023-02-15T11:54:09.057Z,48.78
2023-02-15T11:55:18.291Z,48.68
2023-02-15T11:56:26.179Z,48.20
2023-02-15T11:57:40.924Z,47.68
2023-02-15T11:59:14.188Z,47.41
2023-02-15T12:00:37.419Z,47.35
2023-02-15T12:01:47.996Z,47.73
2023-02-15T12:02:53.767Z,48.08
2023-02-15T12:04:03.269Z,47.37
2023-02-15T12:05:11.989Z,47.37
2023-02-15T12:06:27.176Z,45.81
2023-02-15T12:07:33.213Z,45.98
2023-02-15T12:08:39.504Z,45.67
2023-02-15T12:09:48.442Z,45.33
2023-02-15T12:11:13.071Z,44.90
2023-02-15T12:12:30.972Z,44.48
2023-02-15T12:13:34.683Z,44.56
2023-02-15T12:14:55.479Z,44.81
2023-02-15T12:16:01.388Z,45.11
2023-02-15T12:17:03.681Z,42.84
2023-02-15T12:18:07.710Z,42.64
2023-02-15T12:19:31.817Z,41.99
2023-02-15T12:20:37.189Z,41.05
2023-02-15T12:21:42.847Z,41.22
2023-02-15T12:24:38.795Z,41.69
2023-02-15T12:25:44.543Z,41.54
2023-02-15T12:27:00.113Z,41.95
2023-02-15T12:28:03.579Z,42.37
2023-02-15T12:29:16.547Z,42.60
2023-02-15T12:30:35.381Z,42.38
2023-02-15T12:31:44.543Z,42.42
2023-02-15T12:33:20.888Z,42.48
2023-02-15T12:34:29.747Z,41.96
2023-02-15T12:35:34.678Z,41.64
2023-02-15T12:36:53.480Z,41.70
2023-02-15T12:37:59.053Z,41.77
2023-02-15T12:39:23.480Z,42.11
2023-02-15T12:40:30.341Z,41.89
2023-02-15T12:41:41.003Z,41.24
2023-02-15T12:42:45.644Z,40.71
2023-02-15T12:43:47.930Z,40.92
2023-02-15T12:45:02.312Z,40.68
2023-02-15T12:46:17.722Z,41.15
2023-02-15T12:47:22.241Z,40.86
2023-02-15T12:48:24.651Z,41.24
2023-02-15T12:49:33.948Z,41.07
2023-02-15T12:50:41.068Z,40.92
2023-02-15T12:51:47.185Z,40.63
2023-02-15T12:52:52.267Z,40.97
2023-02-15T12:53:54.860Z,40.97
2023-02-15T12:55:21.109Z,40.80
2023-02-15T12:56:28.546Z,41.07
2023-02-15T12:57:33.143Z,40.48
2023-02-15T12:58:38.837Z,40.95
2023-02-15T12:59:52.263Z,40.99
2023-02-15T13:01:22.616Z,41.21
2023-02-15T13:02:43.444Z,41.28
2023-02-15T13:04:05.492Z,41.81
2023-02-15T13:05:21.149Z,41.31
2023-02-15T13:06:24.889Z,41.11
2023-02-15T13:07:31.502Z,41.45
2023-02-15T13:08:40.542Z,41.20
2023-02-15T13:09:42.880Z,41.63
2023-02-15T13:11:13.466Z,41.45
2023-02-15T13:12:28.178Z,42.02
2023-02-15T13:13:35.255Z,41.87
2023-02-15T13:14:38.330Z,42.52
2023-02-15T13:15:43.906Z,42.59
2023-02-15T13:16:49.874Z,42.73
2023-02-15T13:17:55.081Z,42.78
2023-02-15T13:19:00.679Z,42.80
2023-02-15T13:20:08.759Z,42.48
2023-02-15T13:21:20.044Z,42.28
2023-02-15T13:22:40.222Z,42.29
2023-02-15T13:23:50.150Z,42.53
2023-02-15T13:24:56.080Z,42.29
2023-02-15T13:26:02.373Z,42.41
2023-02-15T13:27:15.395Z,43.36
2023-02-15T13:28:15.437Z,43.13
2023-02-15T13:29:30.262Z,42.58
2023-02-15T13:30:36.494Z,42.25
2023-02-15T13:31:41.519Z,42.32
2023-02-15T13:32:44.396Z,42.32
2023-02-15T13:33:53.725Z,42.71
2023-02-15T13:34:58.878Z,42.71
2023-02-15T13:36:08.378Z,42.00
2023-02-15T13:37:16.975Z,41.62
2023-02-15T13:38:23.779Z,42.34
2023-02-15T13:39:57.510Z,42.37
2023-02-15T13:41:05.948Z,42.46
2023-02-15T13:42:46.731Z,42.46
2023-02-15T13:43:56.405Z,41.83
2023-02-15T13:45:13.158Z,43.02
2023-02-15T13:46:21.716Z,42.17
2023-02-15T13:47:28.104Z,42.23
2023-02-15T13:48:48.384Z,42.54
2023-02-15T13:50:04.901Z,42.18
2023-02-15T13:51:19.499Z,42.56
2023-02-15T13:52:25.739Z,42.11
2023-02-15T13:53:37.637Z,42.25
2023-02-15T13:54:46.470Z,41.93
2023-02-15T13:55:58.239Z,41.54
2023-02-15T13:57:16.605Z,41.46
2023-02-15T13:58:22.573Z,41.67
2023-02-15T13:59:50.427Z,40.83
2023-02-15T14:01:12.161Z,41.05
2023-02-15T14:02:41.457Z,41.01
2023-02-15T14:04:03.330Z,41.83
2023-02-15T14:05:26.411Z,40.93
2023-02-15T14:07:01.465Z,40.63
2023-02-15T14:08:16.468Z,40.86
2023-02-15T14:09:48.447Z,40.18
2023-02-15T14:11:03.856Z,40.05
2023-02-15T14:12:19.732Z,40.91
2023-02-15T14:13:32.297Z,41.24
2023-02-15T14:15:04.244Z,40.72
2023-02-15T14:16:16.785Z,40.96
2023-02-15T14:17:40.347Z,40.45
2023-02-15T14:18:58.879Z,40.35
2023-02-15T14:20:13.391Z,40.47
2023-02-15T14:21:35.425Z,41.42
2023-02-15T14:26:42.236Z,40.94
2023-02-15T14:29:38.260Z,41.31
2023-02-15T14:30:45.471Z,40.90
2023-02-15T14:31:52.787Z,41.64
2023-02-15T14:33:10.771Z,41.27
2023-02-15T14:34:22.618Z,41.36
2023-02-15T14:35:28.841Z,42.26
2023-02-15T14:36:32.353Z,41.51
2023-02-15T14:37:55.573Z,41.18
2023-02-15T14:39:38.843Z,41.82
2023-02-15T14:41:06.066Z,41.03
2023-02-15T14:42:12.136Z,41.92
2023-02-15T14:43:30.173Z,41.23
2023-02-15T14:44:40.560Z,41.51
2023-02-15T14:46:10.565Z,41.57
2023-02-15T14:47:19.261Z,41.14
2023-02-15T14:48:30.293Z,42.16
2023-02-15T14:49:35.666Z,41.45
2023-02-15T14:50:45.205Z,41.84
2023-02-15T14:51:51.239Z,41.38
2023-02-15T14:53:17.334Z,41.48
2023-02-15T14:54:23.987Z,41.82
2023-02-15T14:55:38.039Z,40.72
2023-02-15T14:56:46.418Z,41.32
2023-02-15T14:57:59.776Z,41.28
2023-02-15T14:59:20.587Z,41.68
2023-02-15T15:00:33.658Z,41.54
2023-02-15T15:01:40.066Z,41.50
2023-02-15T15:02:49.364Z,41.44
2023-02-15T15:03:58.741Z,41.56